sensor_id;sensor_type;location;lat;lon;timestamp;P1;durP1;ratioP1;P2;durP2;ratioP2
60494;SDS011;46342;49.046;11.920;2023-12-20T00:01:46;6.47;;;3.63;;
60494;SDS011;46342;49.046;11.920;2023-12-20T00:04:12;8.85;;;3.90;;
60494;SDS011;46342;49.046;11.920;2023-12-20T00:06:37;6.80;;;4.10;;
60494;SDS011;46342;49.046;11.920;2023-12-20T00:09:03;7.35;;;3.67;;
60494;SDS011;46342;49.046;11.920;2023-12-20T00:11:29;6.03;;;3.53;;
60494;SDS011;46342;49.046;11.920;2023-12-20T00:13:54;7.22;;;3.45;;
60494;SDS011;46342;49.046;11.920;2023-12-20T00:16:20;6.75;;;3.67;;
60494;SDS011;46342;49.046;11.920;2023-12-20T00:18:45;6.75;;;4.03;;
60494;SDS011;46342;49.046;11.920;2023-12-20T00:21:11;6.75;;;3.80;;
60494;SDS011;46342;49.046;11.920;2023-12-20T00:23:36;6.97;;;4.05;;
60494;SDS011;46342;49.046;11.920;2023-12-20T00:26:02;8.48;;;3.72;;
60494;SDS011;46342;49.046;11.920;2023-12-20T00:28:27;6.13;;;3.85;;
60494;SDS011;46342;49.046;11.920;2023-12-20T00:30:53;7.63;;;4.53;;
60494;SDS011;46342;49.046;11.920;2023-12-20T00:33:18;8.18;;;5.03;;
60494;SDS011;46342;49.046;11.920;2023-12-20T00:35:44;7.70;;;4.35;;
60494;SDS011;46342;49.046;11.920;2023-12-20T00:38:10;8.20;;;4.00;;
60494;SDS011;46342;49.046;11.920;2023-12-20T00:40:36;7.10;;;3.97;;
60494;SDS011;46342;49.046;11.920;2023-12-20T00:43:02;8.43;;;4.38;;
60494;SDS011;46342;49.046;11.920;2023-12-20T00:45:27;6.43;;;3.97;;
60494;SDS011;46342;49.046;11.920;2023-12-20T00:47:53;10.13;;;4.38;;
60494;SDS011;46342;49.046;11.920;2023-12-20T00:50:18;5.97;;;3.78;;
60494;SDS011;46342;49.046;11.920;2023-12-20T00:52:46;8.63;;;5.30;;
60494;SDS011;46342;49.046;11.920;2023-12-20T00:55:11;7.03;;;4.15;;
60494;SDS011;46342;49.046;11.920;2023-12-20T00:57:37;8.90;;;4.85;;
60494;SDS011;46342;49.046;11.920;2023-12-20T01:00:02;8.88;;;4.20;;
60494;SDS011;46342;49.046;11.920;2023-12-20T01:02:28;7.07;;;4.07;;
60494;SDS011;46342;49.046;11.920;2023-12-20T01:04:54;8.30;;;4.05;;
60494;SDS011;46342;49.046;11.920;2023-12-20T01:07:19;10.57;;;4.38;;
60494;SDS011;46342;49.046;11.920;2023-12-20T01:09:45;7.97;;;4.10;;
60494;SDS011;46342;49.046;11.920;2023-12-20T01:12:10;9.93;;;4.60;;
60494;SDS011;46342;49.046;11.920;2023-12-20T01:14:36;6.90;;;4.13;;
60494;SDS011;46342;49.046;11.920;2023-12-20T01:17:01;7.75;;;4.47;;
60494;SDS011;46342;49.046;11.920;2023-12-20T01:19:27;9.60;;;4.43;;
60494;SDS011;46342;49.046;11.920;2023-12-20T01:21:54;6.93;;;3.72;;
60494;SDS011;46342;49.046;11.920;2023-12-20T01:24:20;8.15;;;4.47;;
60494;SDS011;46342;49.046;11.920;2023-12-20T01:26:46;8.55;;;4.22;;
60494;SDS011;46342;49.046;11.920;2023-12-20T01:29:11;6.13;;;4.25;;
60494;SDS011;46342;49.046;11.920;2023-12-20T01:31:38;8.70;;;4.93;;
60494;SDS011;46342;49.046;11.920;2023-12-20T01:34:03;10.07;;;4.60;;
60494;SDS011;46342;49.046;11.920;2023-12-20T01:36:29;6.95;;;4.30;;
60494;SDS011;46342;49.046;11.920;2023-12-20T01:38:54;9.25;;;4.57;;
60494;SDS011;46342;49.046;11.920;2023-12-20T01:41:20;8.82;;;4.75;;
60494;SDS011;46342;49.046;11.920;2023-12-20T01:43:45;8.85;;;4.80;;
60494;SDS011;46342;49.046;11.920;2023-12-20T01:46:11;7.72;;;4.45;;
60494;SDS011;46342;49.046;11.920;2023-12-20T01:48:37;8.43;;;4.70;;
60494;SDS011;46342;49.046;11.920;2023-12-20T01:51:03;8.65;;;4.80;;
60494;SDS011;46342;49.046;11.920;2023-12-20T01:53:29;7.20;;;4.10;;
60494;SDS011;46342;49.046;11.920;2023-12-20T01:55:57;7.57;;;4.38;;
60494;SDS011;46342;49.046;11.920;2023-12-20T01:58:24;7.38;;;4.38;;
60494;SDS011;46342;49.046;11.920;2023-12-20T02:00:50;9.82;;;4.75;;
60494;SDS011;46342;49.046;11.920;2023-12-20T02:03:16;7.57;;;4.22;;
60494;SDS011;46342;49.046;11.920;2023-12-20T02:05:42;7.72;;;4.35;;
60494;SDS011;46342;49.046;11.920;2023-12-20T02:08:09;9.18;;;4.70;;
60494;SDS011;46342;49.046;11.920;2023-12-20T02:10:35;10.07;;;4.85;;
60494;SDS011;46342;49.046;11.920;2023-12-20T02:13:00;9.65;;;4.97;;
60494;SDS011;46342;49.046;11.920;2023-12-20T02:15:26;9.15;;;4.80;;
60494;SDS011;46342;49.046;11.920;2023-12-20T02:17:51;9.05;;;5.13;;
60494;SDS011;46342;49.046;11.920;2023-12-20T02:20:18;7.65;;;4.15;;
60494;SDS011;46342;49.046;11.920;2023-12-20T02:22:44;8.40;;;4.38;;
60494;SDS011;46342;49.046;11.920;2023-12-20T02:25:09;7.55;;;4.60;;
60494;SDS011;46342;49.046;11.920;2023-12-20T02:27:35;6.80;;;4.18;;
60494;SDS011;46342;49.046;11.920;2023-12-20T02:30:00;8.00;;;4.55;;
60494;SDS011;46342;49.046;11.920;2023-12-20T02:32:26;8.00;;;4.43;;
60494;SDS011;46342;49.046;11.920;2023-12-20T02:34:53;7.68;;;4.50;;
60494;SDS011;46342;49.046;11.920;2023-12-20T02:37:19;6.95;;;4.03;;
60494;SDS011;46342;49.046;11.920;2023-12-20T02:39:45;9.90;;;4.70;;
60494;SDS011;46342;49.046;11.920;2023-12-20T02:42:10;6.63;;;4.80;;
60494;SDS011;46342;49.046;11.920;2023-12-20T02:44:36;8.52;;;3.97;;
60494;SDS011;46342;49.046;11.920;2023-12-20T02:47:02;7.15;;;4.13;;
60494;SDS011;46342;49.046;11.920;2023-12-20T02:49:28;6.80;;;4.28;;
60494;SDS011;46342;49.046;11.920;2023-12-20T02:51:53;7.45;;;4.10;;
60494;SDS011;46342;49.046;11.920;2023-12-20T02:54:19;7.65;;;3.90;;
60494;SDS011;46342;49.046;11.920;2023-12-20T02:56:44;7.57;;;4.50;;
60494;SDS011;46342;49.046;11.920;2023-12-20T02:59:10;8.23;;;4.35;;
60494;SDS011;46342;49.046;11.920;2023-12-20T03:01:40;7.70;;;4.25;;
60494;SDS011;46342;49.046;11.920;2023-12-20T03:04:10;7.80;;;4.50;;
60494;SDS011;46342;49.046;11.920;2023-12-20T03:06:36;6.15;;;4.00;;
60494;SDS011;46342;49.046;11.920;2023-12-20T03:09:02;6.95;;;4.13;;
60494;SDS011;46342;49.046;11.920;2023-12-20T03:11:27;5.80;;;3.95;;
60494;SDS011;46342;49.046;11.920;2023-12-20T03:13:53;7.55;;;3.70;;
60494;SDS011;46342;49.046;11.920;2023-12-20T03:16:19;6.22;;;3.85;;
60494;SDS011;46342;49.046;11.920;2023-12-20T03:18:45;7.70;;;3.78;;
60494;SDS011;46342;49.046;11.920;2023-12-20T03:21:11;6.38;;;4.10;;
60494;SDS011;46342;49.046;11.920;2023-12-20T03:23:36;6.38;;;3.97;;
60494;SDS011;46342;49.046;11.920;2023-12-20T03:26:02;7.50;;;4.00;;
60494;SDS011;46342;49.046;11.920;2023-12-20T03:28:28;7.97;;;3.72;;
60494;SDS011;46342;49.046;11.920;2023-12-20T03:30:54;6.50;;;3.78;;
60494;SDS011;46342;49.046;11.920;2023-12-20T03:33:20;9.32;;;4.07;;
60494;SDS011;46342;49.046;11.920;2023-12-20T03:35:45;6.47;;;3.72;;
60494;SDS011;46342;49.046;11.920;2023-12-20T03:38:11;6.22;;;3.40;;
60494;SDS011;46342;49.046;11.920;2023-12-20T03:40:36;5.88;;;3.47;;
60494;SDS011;46342;49.046;11.920;2023-12-20T03:43:02;6.78;;;3.80;;
60494;SDS011;46342;49.046;11.920;2023-12-20T03:45:27;6.47;;;3.92;;
60494;SDS011;46342;49.046;11.920;2023-12-20T03:47:53;5.75;;;3.70;;
60494;SDS011;46342;49.046;11.920;2023-12-20T03:50:22;5.13;;;3.40;;
60494;SDS011;46342;49.046;11.920;2023-12-20T03:52:48;5.63;;;3.65;;
60494;SDS011;46342;49.046;11.920;2023-12-20T03:55:13;5.75;;;3.97;;
60494;SDS011;46342;49.046;11.920;2023-12-20T03:57:39;5.35;;;3.47;;
60494;SDS011;46342;49.046;11.920;2023-12-20T04:00:06;5.07;;;3.38;;
60494;SDS011;46342;49.046;11.920;2023-12-20T04:02:35;8.48;;;3.60;;
60494;SDS011;46342;49.046;11.920;2023-12-20T04:05:01;5.22;;;3.72;;
60494;SDS011;46342;49.046;11.920;2023-12-20T04:07:27;6.03;;;3.35;;
60494;SDS011;46342;49.046;11.920;2023-12-20T04:09:52;5.50;;;3.35;;
60494;SDS011;46342;49.046;11.920;2023-12-20T04:12:18;5.10;;;2.92;;
60494;SDS011;46342;49.046;11.920;2023-12-20T04:14:43;5.40;;;3.28;;
60494;SDS011;46342;49.046;11.920;2023-12-20T04:17:09;4.63;;;3.00;;
60494;SDS011;46342;49.046;11.920;2023-12-20T04:19:34;5.13;;;3.05;;
60494;SDS011;46342;49.046;11.920;2023-12-20T04:22:00;4.85;;;3.00;;
60494;SDS011;46342;49.046;11.920;2023-12-20T04:24:26;5.65;;;3.00;;
60494;SDS011;46342;49.046;11.920;2023-12-20T04:26:51;3.20;;;2.35;;
60494;SDS011;46342;49.046;11.920;2023-12-20T04:29:17;3.97;;;2.60;;
60494;SDS011;46342;49.046;11.920;2023-12-20T04:31:42;3.75;;;2.63;;
60494;SDS011;46342;49.046;11.920;2023-12-20T04:34:08;4.30;;;2.80;;
60494;SDS011;46342;49.046;11.920;2023-12-20T04:36:34;5.28;;;3.47;;
60494;SDS011;46342;49.046;11.920;2023-12-20T04:38:59;6.32;;;3.13;;
60494;SDS011;46342;49.046;11.920;2023-12-20T04:41:25;4.88;;;2.88;;
60494;SDS011;46342;49.046;11.920;2023-12-20T04:43:52;3.97;;;2.72;;
60494;SDS011;46342;49.046;11.920;2023-12-20T04:46:18;4.05;;;2.47;;
60494;SDS011;46342;49.046;11.920;2023-12-20T04:48:43;5.35;;;2.88;;
60494;SDS011;46342;49.046;11.920;2023-12-20T04:51:09;3.97;;;2.92;;
60494;SDS011;46342;49.046;11.920;2023-12-20T04:53:34;3.85;;;2.70;;
60494;SDS011;46342;49.046;11.920;2023-12-20T04:56:00;4.03;;;2.78;;
60494;SDS011;46342;49.046;11.920;2023-12-20T04:58:26;4.32;;;2.80;;
60494;SDS011;46342;49.046;11.920;2023-12-20T05:00:51;4.18;;;2.53;;
60494;SDS011;46342;49.046;11.920;2023-12-20T05:03:17;3.20;;;2.15;;
60494;SDS011;46342;49.046;11.920;2023-12-20T05:05:42;2.70;;;2.05;;
60494;SDS011;46342;49.046;11.920;2023-12-20T05:08:08;3.55;;;2.03;;
60494;SDS011;46342;49.046;11.920;2023-12-20T05:10:33;4.28;;;2.58;;
60494;SDS011;46342;49.046;11.920;2023-12-20T05:13:00;2.75;;;2.20;;
60494;SDS011;46342;49.046;11.920;2023-12-20T05:15:25;2.15;;;1.90;;
60494;SDS011;46342;49.046;11.920;2023-12-20T05:17:51;2.33;;;1.60;;
60494;SDS011;46342;49.046;11.920;2023-12-20T05:20:16;2.40;;;1.80;;
60494;SDS011;46342;49.046;11.920;2023-12-20T05:22:42;1.90;;;1.40;;
60494;SDS011;46342;49.046;11.920;2023-12-20T05:25:08;1.38;;;1.27;;
60494;SDS011;46342;49.046;11.920;2023-12-20T05:27:33;1.58;;;1.23;;
60494;SDS011;46342;49.046;11.920;2023-12-20T05:29:59;1.60;;;1.20;;
60494;SDS011;46342;49.046;11.920;2023-12-20T05:32:25;1.38;;;1.23;;
60494;SDS011;46342;49.046;11.920;2023-12-20T05:34:50;1.27;;;1.10;;
60494;SDS011;46342;49.046;11.920;2023-12-20T05:37:16;1.30;;;1.20;;
60494;SDS011;46342;49.046;11.920;2023-12-20T05:39:41;2.50;;;1.15;;
60494;SDS011;46342;49.046;11.920;2023-12-20T05:42:07;1.80;;;1.17;;
60494;SDS011;46342;49.046;11.920;2023-12-20T05:44:32;1.25;;;1.10;;
60494;SDS011;46342;49.046;11.920;2023-12-20T05:46:58;1.00;;;0.90;;
60494;SDS011;46342;49.046;11.920;2023-12-20T05:49:23;1.27;;;1.08;;
60494;SDS011;46342;49.046;11.920;2023-12-20T05:51:49;1.10;;;1.00;;
60494;SDS011;46342;49.046;11.920;2023-12-20T05:54:16;1.13;;;1.02;;
60494;SDS011;46342;49.046;11.920;2023-12-20T05:56:41;1.60;;;1.25;;
60494;SDS011;46342;49.046;11.920;2023-12-20T05:59:07;1.20;;;1.10;;
60494;SDS011;46342;49.046;11.920;2023-12-20T06:01:33;1.60;;;1.30;;
60494;SDS011;46342;49.046;11.920;2023-12-20T06:03:58;1.95;;;1.20;;
60494;SDS011;46342;49.046;11.920;2023-12-20T06:06:24;2.15;;;1.10;;
60494;SDS011;46342;49.046;11.920;2023-12-20T06:08:49;1.38;;;1.10;;
60494;SDS011;46342;49.046;11.920;2023-12-20T06:11:15;1.00;;;0.90;;
60494;SDS011;46342;49.046;11.920;2023-12-20T06:13:40;1.55;;;1.23;;
60494;SDS011;46342;49.046;11.920;2023-12-20T06:16:06;1.27;;;1.17;;
60494;SDS011;46342;49.046;11.920;2023-12-20T06:18:32;1.67;;;1.33;;
60494;SDS011;46342;49.046;11.920;2023-12-20T06:20:58;1.92;;;1.60;;
60494;SDS011;46342;49.046;11.920;2023-12-20T06:23:23;1.40;;;1.30;;
60494;SDS011;46342;49.046;11.920;2023-12-20T06:25:49;2.10;;;1.42;;
60494;SDS011;46342;49.046;11.920;2023-12-20T06:28:14;1.95;;;1.40;;
60494;SDS011;46342;49.046;11.920;2023-12-20T06:30:40;1.30;;;1.10;;
60494;SDS011;46342;49.046;11.920;2023-12-20T06:33:06;2.03;;;1.55;;
60494;SDS011;46342;49.046;11.920;2023-12-20T06:35:32;2.95;;;1.85;;
60494;SDS011;46342;49.046;11.920;2023-12-20T06:37:57;2.35;;;1.20;;
60494;SDS011;46342;49.046;11.920;2023-12-20T06:40:23;2.22;;;1.20;;
60494;SDS011;46342;49.046;11.920;2023-12-20T06:42:49;1.42;;;1.10;;
60494;SDS011;46342;49.046;11.920;2023-12-20T06:45:14;1.42;;;1.17;;
60494;SDS011;46342;49.046;11.920;2023-12-20T06:47:40;1.52;;;1.00;;
60494;SDS011;46342;49.046;11.920;2023-12-20T06:50:05;1.00;;;0.90;;
60494;SDS011;46342;49.046;11.920;2023-12-20T06:52:33;1.92;;;0.85;;
60494;SDS011;46342;49.046;11.920;2023-12-20T06:54:59;0.68;;;0.68;;
60494;SDS011;46342;49.046;11.920;2023-12-20T06:57:25;0.80;;;0.80;;
60494;SDS011;46342;49.046;11.920;2023-12-20T06:59:51;0.95;;;0.88;;
60494;SDS011;46342;49.046;11.920;2023-12-20T07:02:18;0.70;;;0.70;;
60494;SDS011;46342;49.046;11.920;2023-12-20T07:04:43;0.70;;;0.70;;
60494;SDS011;46342;49.046;11.920;2023-12-20T07:07:09;0.80;;;0.70;;
60494;SDS011;46342;49.046;11.920;2023-12-20T07:09:34;0.60;;;0.60;;
60494;SDS011;46342;49.046;11.920;2023-12-20T07:12:00;0.63;;;0.63;;
60494;SDS011;46342;49.046;11.920;2023-12-20T07:14:25;0.77;;;0.77;;
60494;SDS011;46342;49.046;11.920;2023-12-20T07:16:51;0.70;;;0.70;;
60494;SDS011;46342;49.046;11.920;2023-12-20T07:19:17;0.80;;;0.80;;
60494;SDS011;46342;49.046;11.920;2023-12-20T07:21:43;0.70;;;0.70;;
60494;SDS011;46342;49.046;11.920;2023-12-20T07:24:08;0.80;;;0.80;;
60494;SDS011;46342;49.046;11.920;2023-12-20T07:26:34;1.20;;;0.80;;
60494;SDS011;46342;49.046;11.920;2023-12-20T07:29:00;0.70;;;0.70;;
60494;SDS011;46342;49.046;11.920;2023-12-20T07:31:26;1.02;;;0.90;;
60494;SDS011;46342;49.046;11.920;2023-12-20T07:33:51;1.23;;;0.93;;
60494;SDS011;46342;49.046;11.920;2023-12-20T07:36:17;0.77;;;0.77;;
60494;SDS011;46342;49.046;11.920;2023-12-20T07:38:42;0.93;;;0.70;;
60494;SDS011;46342;49.046;11.920;2023-12-20T07:41:12;0.85;;;0.85;;
60494;SDS011;46342;49.046;11.920;2023-12-20T07:43:38;0.70;;;0.65;;
60494;SDS011;46342;49.046;11.920;2023-12-20T07:46:04;0.85;;;0.82;;
60494;SDS011;46342;49.046;11.920;2023-12-20T07:48:30;0.80;;;0.80;;
60494;SDS011;46342;49.046;11.920;2023-12-20T07:50:56;0.60;;;0.60;;
60494;SDS011;46342;49.046;11.920;2023-12-20T07:53:22;1.00;;;0.90;;
60494;SDS011;46342;49.046;11.920;2023-12-20T07:55:47;0.70;;;0.70;;
60494;SDS011;46342;49.046;11.920;2023-12-20T07:58:13;0.70;;;0.70;;
60494;SDS011;46342;49.046;11.920;2023-12-20T08:00:38;0.77;;;0.77;;
60494;SDS011;46342;49.046;11.920;2023-12-20T08:03:04;0.80;;;0.80;;
60494;SDS011;46342;49.046;11.920;2023-12-20T08:05:29;1.27;;;0.90;;
60494;SDS011;46342;49.046;11.920;2023-12-20T08:07:55;1.27;;;0.93;;
60494;SDS011;46342;49.046;11.920;2023-12-20T08:10:20;0.70;;;0.70;;
60494;SDS011;46342;49.046;11.920;2023-12-20T08:12:46;0.88;;;0.80;;
60494;SDS011;46342;49.046;11.920;2023-12-20T08:15:11;0.88;;;0.88;;
60494;SDS011;46342;49.046;11.920;2023-12-20T08:17:37;0.77;;;0.75;;
60494;SDS011;46342;49.046;11.920;2023-12-20T08:20:03;2.10;;;0.75;;
60494;SDS011;46342;49.046;11.920;2023-12-20T08:22:29;0.80;;;0.80;;
60494;SDS011;46342;49.046;11.920;2023-12-20T08:24:55;1.00;;;0.82;;
60494;SDS011;46342;49.046;11.920;2023-12-20T08:27:20;0.70;;;0.70;;
60494;SDS011;46342;49.046;11.920;2023-12-20T08:29:46;0.70;;;0.70;;
60494;SDS011;46342;49.046;11.920;2023-12-20T08:32:12;0.70;;;0.70;;
60494;SDS011;46342;49.046;11.920;2023-12-20T08:34:37;0.90;;;0.90;;
60494;SDS011;46342;49.046;11.920;2023-12-20T08:37:03;0.70;;;0.70;;
60494;SDS011;46342;49.046;11.920;2023-12-20T08:39:28;1.65;;;1.10;;
60494;SDS011;46342;49.046;11.920;2023-12-20T08:41:55;0.63;;;0.63;;
60494;SDS011;46342;49.046;11.920;2023-12-20T08:44:20;0.80;;;0.80;;
60494;SDS011;46342;49.046;11.920;2023-12-20T08:46:47;1.00;;;0.65;;
60494;SDS011;46342;49.046;11.920;2023-12-20T08:49:13;0.80;;;0.80;;
60494;SDS011;46342;49.046;11.920;2023-12-20T08:51:39;0.88;;;0.80;;
60494;SDS011;46342;49.046;11.920;2023-12-20T08:54:06;2.13;;;1.05;;
60494;SDS011;46342;49.046;11.920;2023-12-20T08:56:33;1.23;;;1.13;;
60494;SDS011;46342;49.046;11.920;2023-12-20T08:58:59;1.33;;;1.10;;
60494;SDS011;46342;49.046;11.920;2023-12-20T09:01:24;0.80;;;0.80;;
60494;SDS011;46342;49.046;11.920;2023-12-20T09:03:50;0.82;;;0.82;;
60494;SDS011;46342;49.046;11.920;2023-12-20T09:06:15;0.80;;;0.80;;
60494;SDS011;46342;49.046;11.920;2023-12-20T09:08:41;0.80;;;0.80;;
60494;SDS011;46342;49.046;11.920;2023-12-20T09:11:06;1.10;;;1.00;;
60494;SDS011;46342;49.046;11.920;2023-12-20T09:13:32;0.88;;;0.85;;
60494;SDS011;46342;49.046;11.920;2023-12-20T09:15:58;1.10;;;1.00;;
60494;SDS011;46342;49.046;11.920;2023-12-20T09:18:24;1.30;;;1.20;;
60494;SDS011;46342;49.046;11.920;2023-12-20T09:20:49;1.98;;;1.13;;
60494;SDS011;46342;49.046;11.920;2023-12-20T09:23:15;1.67;;;1.30;;
60494;SDS011;46342;49.046;11.920;2023-12-20T09:25:40;1.50;;;1.40;;
60494;SDS011;46342;49.046;11.920;2023-12-20T09:28:06;1.55;;;1.40;;
60494;SDS011;46342;49.046;11.920;2023-12-20T09:30:31;1.30;;;1.20;;
60494;SDS011;46342;49.046;11.920;2023-12-20T09:32:57;2.55;;;1.40;;
60494;SDS011;46342;49.046;11.920;2023-12-20T09:35:23;1.67;;;1.30;;
60494;SDS011;46342;49.046;11.920;2023-12-20T09:37:49;1.55;;;1.33;;
60494;SDS011;46342;49.046;11.920;2023-12-20T09:40:14;2.17;;;1.50;;
60494;SDS011;46342;49.046;11.920;2023-12-20T09:45:22;2.30;;;1.70;;
60494;SDS011;46342;49.046;11.920;2023-12-20T09:47:51;1.73;;;1.42;;
60494;SDS011;46342;49.046;11.920;2023-12-20T09:50:18;1.90;;;1.20;;
60494;SDS011;46342;49.046;11.920;2023-12-20T09:52:46;2.97;;;1.60;;
60494;SDS011;46342;49.046;11.920;2023-12-20T09:55:18;1.77;;;1.40;;
60494;SDS011;46342;49.046;11.920;2023-12-20T09:57:45;3.10;;;1.67;;
60494;SDS011;46342;49.046;11.920;2023-12-20T10:00:11;2.38;;;1.50;;
60494;SDS011;46342;49.046;11.920;2023-12-20T10:02:38;1.90;;;1.30;;
60494;SDS011;46342;49.046;11.920;2023-12-20T10:05:16;1.73;;;1.42;;
60494;SDS011;46342;49.046;11.920;2023-12-20T10:07:44;2.30;;;1.25;;
60494;SDS011;46342;49.046;11.920;2023-12-20T10:10:11;1.75;;;1.20;;
60494;SDS011;46342;49.046;11.920;2023-12-20T10:12:38;2.72;;;1.42;;
60494;SDS011;46342;49.046;11.920;2023-12-20T10:15:04;1.40;;;1.30;;
60494;SDS011;46342;49.046;11.920;2023-12-20T10:17:31;1.55;;;1.45;;
60494;SDS011;46342;49.046;11.920;2023-12-20T10:19:57;1.45;;;1.35;;
60494;SDS011;46342;49.046;11.920;2023-12-20T10:22:23;2.08;;;1.58;;
60494;SDS011;46342;49.046;11.920;2023-12-20T10:24:49;1.40;;;1.30;;
60494;SDS011;46342;49.046;11.920;2023-12-20T10:27:14;1.73;;;1.60;;
60494;SDS011;46342;49.046;11.920;2023-12-20T10:29:44;1.70;;;1.52;;
60494;SDS011;46342;49.046;11.920;2023-12-20T10:32:25;1.50;;;1.40;;
60494;SDS011;46342;49.046;11.920;2023-12-20T10:34:52;1.85;;;1.65;;
60494;SDS011;46342;49.046;11.920;2023-12-20T10:37:19;2.03;;;1.83;;
60494;SDS011;46342;49.046;11.920;2023-12-20T10:39:52;2.03;;;1.60;;
60494;SDS011;46342;49.046;11.920;2023-12-20T10:42:21;2.60;;;1.65;;
60494;SDS011;46342;49.046;11.920;2023-12-20T10:44:47;1.80;;;1.60;;
60494;SDS011;46342;49.046;11.920;2023-12-20T10:47:14;1.70;;;1.48;;
60494;SDS011;46342;49.046;11.920;2023-12-20T10:49:41;2.67;;;1.80;;
60494;SDS011;46342;49.046;11.920;2023-12-20T10:52:07;2.33;;;1.70;;
60494;SDS011;46342;49.046;11.920;2023-12-20T10:54:34;2.00;;;1.52;;
60494;SDS011;46342;49.046;11.920;2023-12-20T10:57:00;2.92;;;1.77;;
60494;SDS011;46342;49.046;11.920;2023-12-20T10:59:30;3.47;;;1.90;;
60494;SDS011;46342;49.046;11.920;2023-12-20T11:01:58;1.90;;;1.70;;
60494;SDS011;46342;49.046;11.920;2023-12-20T11:04:29;2.08;;;1.70;;
60494;SDS011;46342;49.046;11.920;2023-12-20T11:10:16;2.33;;;1.60;;
60494;SDS011;46342;49.046;11.920;2023-12-20T11:12:48;4.00;;;1.60;;
60494;SDS011;46342;49.046;11.920;2023-12-20T11:15:19;4.60;;;1.70;;
60494;SDS011;46342;49.046;11.920;2023-12-20T11:17:46;2.95;;;1.67;;
60494;SDS011;46342;49.046;11.920;2023-12-20T11:20:19;3.13;;;1.50;;
60494;SDS011;46342;49.046;11.920;2023-12-20T11:22:54;1.85;;;1.52;;
60494;SDS011;46342;49.046;11.920;2023-12-20T11:25:21;2.35;;;1.50;;
60494;SDS011;46342;49.046;11.920;2023-12-20T11:28:06;2.53;;;1.40;;
60494;SDS011;46342;49.046;11.920;2023-12-20T11:30:46;3.35;;;1.52;;
60494;SDS011;46342;49.046;11.920;2023-12-20T11:33:14;1.92;;;1.40;;
60494;SDS011;46342;49.046;11.920;2023-12-20T11:35:41;5.78;;;1.67;;
60494;SDS011;46342;49.046;11.920;2023-12-20T11:38:07;2.83;;;1.30;;
60494;SDS011;46342;49.046;11.920;2023-12-20T11:40:35;1.50;;;1.20;;
60494;SDS011;46342;49.046;11.920;2023-12-20T11:43:02;3.22;;;1.48;;
60494;SDS011;46342;49.046;11.920;2023-12-20T11:45:28;3.38;;;1.48;;
60494;SDS011;46342;49.046;11.920;2023-12-20T11:47:54;3.15;;;1.27;;
60494;SDS011;46342;49.046;11.920;2023-12-20T11:52:49;3.15;;;1.20;;
60494;SDS011;46342;49.046;11.920;2023-12-20T11:55:16;3.42;;;1.30;;
60494;SDS011;46342;49.046;11.920;2023-12-20T11:57:42;1.45;;;1.20;;
60494;SDS011;46342;49.046;11.920;2023-12-20T12:00:09;1.70;;;1.00;;
60494;SDS011;46342;49.046;11.920;2023-12-20T12:02:35;3.28;;;1.00;;
60494;SDS011;46342;49.046;11.920;2023-12-20T12:05:01;1.77;;;0.90;;
60494;SDS011;46342;49.046;11.920;2023-12-20T12:07:30;2.95;;;1.10;;
60494;SDS011;46342;49.046;11.920;2023-12-20T12:09:55;8.57;;;1.60;;
60494;SDS011;46342;49.046;11.920;2023-12-20T12:12:21;2.13;;;1.15;;
60494;SDS011;46342;49.046;11.920;2023-12-20T12:14:47;4.20;;;1.40;;
60494;SDS011;46342;49.046;11.920;2023-12-20T12:17:14;4.07;;;1.00;;
60494;SDS011;46342;49.046;11.920;2023-12-20T12:19:40;2.00;;;0.93;;
60494;SDS011;46342;49.046;11.920;2023-12-20T12:22:07;1.30;;;1.00;;
60494;SDS011;46342;49.046;11.920;2023-12-20T12:24:40;2.05;;;1.40;;
60494;SDS011;46342;49.046;11.920;2023-12-20T12:27:07;2.70;;;1.13;;
60494;SDS011;46342;49.046;11.920;2023-12-20T12:29:33;1.10;;;1.00;;
60494;SDS011;46342;49.046;11.920;2023-12-20T12:31:59;4.00;;;1.13;;
60494;SDS011;46342;49.046;11.920;2023-12-20T12:34:28;2.50;;;1.00;;
60494;SDS011;46342;49.046;11.920;2023-12-20T12:36:54;2.00;;;1.33;;
60494;SDS011;46342;49.046;11.920;2023-12-20T12:39:20;2.22;;;1.20;;
60494;SDS011;46342;49.046;11.920;2023-12-20T12:41:45;2.35;;;0.90;;
60494;SDS011;46342;49.046;11.920;2023-12-20T12:44:11;1.35;;;0.80;;
60494;SDS011;46342;49.046;11.920;2023-12-20T12:46:37;2.45;;;1.00;;
60494;SDS011;46342;49.046;11.920;2023-12-20T12:49:03;4.53;;;1.02;;
60494;SDS011;46342;49.046;11.920;2023-12-20T12:51:29;1.83;;;1.15;;
60494;SDS011;46342;49.046;11.920;2023-12-20T12:53:54;3.17;;;1.27;;
60494;SDS011;46342;49.046;11.920;2023-12-20T12:56:20;3.60;;;1.33;;
60494;SDS011;46342;49.046;11.920;2023-12-20T12:58:47;2.15;;;1.27;;
60494;SDS011;46342;49.046;11.920;2023-12-20T13:01:12;3.72;;;1.73;;
60494;SDS011;46342;49.046;11.920;2023-12-20T13:03:39;1.80;;;1.20;;
60494;SDS011;46342;49.046;11.920;2023-12-20T13:06:04;1.90;;;1.38;;
60494;SDS011;46342;49.046;11.920;2023-12-20T13:08:31;2.63;;;1.65;;
60494;SDS011;46342;49.046;11.920;2023-12-20T13:10:57;3.78;;;1.60;;
60494;SDS011;46342;49.046;11.920;2023-12-20T13:13:25;3.85;;;1.67;;
60494;SDS011;46342;49.046;11.920;2023-12-20T13:15:51;5.38;;;1.73;;
60494;SDS011;46342;49.046;11.920;2023-12-20T13:20:48;3.45;;;1.75;;
60494;SDS011;46342;49.046;11.920;2023-12-20T13:23:14;3.10;;;1.50;;
60494;SDS011;46342;49.046;11.920;2023-12-20T13:25:41;2.70;;;1.30;;
60494;SDS011;46342;49.046;11.920;2023-12-20T13:28:06;2.97;;;1.30;;
60494;SDS011;46342;49.046;11.920;2023-12-20T13:30:33;1.65;;;1.10;;
60494;SDS011;46342;49.046;11.920;2023-12-20T13:32:59;5.32;;;1.95;;
60494;SDS011;46342;49.046;11.920;2023-12-20T13:35:24;2.15;;;1.33;;
60494;SDS011;46342;49.046;11.920;2023-12-20T13:37:50;3.67;;;1.45;;
60494;SDS011;46342;49.046;11.920;2023-12-20T13:40:15;3.97;;;1.77;;
60494;SDS011;46342;49.046;11.920;2023-12-20T13:42:41;2.28;;;1.48;;
60494;SDS011;46342;49.046;11.920;2023-12-20T13:45:07;2.25;;;1.48;;
60494;SDS011;46342;49.046;11.920;2023-12-20T13:47:33;2.15;;;1.33;;
60494;SDS011;46342;49.046;11.920;2023-12-20T13:49:59;1.77;;;1.15;;
60494;SDS011;46342;49.046;11.920;2023-12-20T13:52:24;2.42;;;1.27;;
60494;SDS011;46342;49.046;11.920;2023-12-20T13:54:50;2.85;;;1.30;;
60494;SDS011;46342;49.046;11.920;2023-12-20T13:57:15;2.45;;;1.20;;
60494;SDS011;46342;49.046;11.920;2023-12-20T13:59:41;4.35;;;1.58;;
60494;SDS011;46342;49.046;11.920;2023-12-20T14:02:06;5.38;;;2.35;;
60494;SDS011;46342;49.046;11.920;2023-12-20T14:04:32;2.85;;;1.35;;
60494;SDS011;46342;49.046;11.920;2023-12-20T14:06:58;3.58;;;1.00;;
60494;SDS011;46342;49.046;11.920;2023-12-20T14:09:24;3.40;;;1.20;;
60494;SDS011;46342;49.046;11.920;2023-12-20T14:11:49;3.35;;;1.25;;
60494;SDS011;46342;49.046;11.920;2023-12-20T14:14:15;1.23;;;0.93;;
60494;SDS011;46342;49.046;11.920;2023-12-20T14:16:41;2.47;;;1.20;;
60494;SDS011;46342;49.046;11.920;2023-12-20T14:19:10;1.73;;;1.10;;
60494;SDS011;46342;49.046;11.920;2023-12-20T14:21:35;2.92;;;1.35;;
60494;SDS011;46342;49.046;11.920;2023-12-20T14:24:01;3.35;;;1.23;;
60494;SDS011;46342;49.046;11.920;2023-12-20T14:26:28;1.97;;;1.53;;
60494;SDS011;46342;49.046;11.920;2023-12-20T14:28:54;2.47;;;1.30;;
60494;SDS011;46342;49.046;11.920;2023-12-20T14:31:20;7.03;;;2.70;;
60494;SDS011;46342;49.046;11.920;2023-12-20T14:33:46;5.15;;;2.10;;
60494;SDS011;46342;49.046;11.920;2023-12-20T14:36:12;2.95;;;1.60;;
60494;SDS011;46342;49.046;11.920;2023-12-20T14:38:37;4.22;;;1.50;;